Time;durP1;ratioP1;P1;durP2;ratioP2;P2;SDS_P1;SDS_P2;PMS_P1;PMS_P2;Temp;Humidity;BMP_temperature;BMP_pressure;BME280_temperature;BME280_humidity;BME280_pressure;Samples;Min_cycle;Max_cycle;Signal;HPM_P1;HPM_P2
2022/08/05 00:01:14;;;;;;;4.20;3.00;;;22.30;99.90;;;;;;5038939;28;20022;-60
2022/08/05 00:03:40;;;;;;;7.85;3.20;;;22.30;99.90;;;;;;5037235;28;20033;-59
2022/08/05 00:06:06;;;;;;;9.30;3.28;;;22.30;99.90;;;;;;5033417;28;20495;-59
2022/08/05 00:08:33;;;;;;;4.22;2.90;;;22.20;99.90;;;;;;5045293;28;20048;-60
2022/08/05 00:11:00;;;;;;;7.57;3.40;;;22.20;99.90;;;;;;5035231;28;20029;-60
2022/08/05 00:13:25;;;;;;;4.95;3.00;;;22.10;99.90;;;;;;5040002;28;20471;-60
2022/08/05 00:15:51;;;;;;;6.70;3.55;;;22.10;99.90;;;;;;5029911;28;20025;-59
2022/08/05 00:18:16;;;;;;;10.80;3.95;;;22.00;99.90;;;;;;5039327;28;20033;-57
2022/08/05 00:20:42;;;;;;;7.78;3.17;;;22.00;99.90;;;;;;5031255;28;20151;-58
2022/08/05 00:23:07;;;;;;;7.25;2.90;;;21.90;99.90;;;;;;5034344;28;20032;-59
2022/08/05 00:25:33;;;;;;;6.88;3.47;;;21.90;99.90;;;;;;5037526;28;20029;-59
2022/08/05 00:27:58;;;;;;;7.75;3.55;;;21.80;99.90;;;;;;5038020;28;20048;-59
2022/08/05 00:30:24;;;;;;;8.70;3.70;;;21.70;99.90;;;;;;5033589;28;20084;-60
2022/08/05 00:32:50;;;;;;;5.35;2.92;;;21.60;99.90;;;;;;5033380;28;20112;-60
2022/08/05 00:35:15;;;;;;;7.05;3.63;;;21.60;99.90;;;;;;5030365;28;20029;-60
2022/08/05 00:37:41;;;;;;;9.55;3.63;;;21.50;99.90;;;;;;5037810;28;20059;-59
2022/08/05 00:40:07;;;;;;;9.45;3.97;;;21.30;99.90;;;;;;5034431;28;20033;-59
2022/08/05 00:42:35;;;;;;;5.65;3.33;;;21.20;99.90;;;;;;5041893;28;20027;-59
2022/08/05 00:45:02;;;;;;;10.18;3.58;;;21.20;99.90;;;;;;5031096;28;20025;-60
2022/08/05 00:47:28;;;;;;;7.13;3.22;;;21.10;99.90;;;;;;5042651;28;20021;-59
2022/08/05 00:49:53;;;;;;;8.85;3.05;;;21.00;99.90;;;;;;5031951;28;20067;-59
2022/08/05 00:52:19;;;;;;;9.68;3.70;;;21.00;99.90;;;;;;5032663;28;20021;-59
2022/08/05 00:54:45;;;;;;;5.45;3.42;;;21.00;99.90;;;;;;5032170;28;20131;-60
2022/08/05 00:57:11;;;;;;;7.70;3.85;;;20.90;99.90;;;;;;5033497;28;20088;-60
2022/08/05 00:59:36;;;;;;;6.82;3.88;;;20.80;99.90;;;;;;5044766;28;20036;-59
2022/08/05 01:02:02;;;;;;;8.70;3.42;;;20.70;99.90;;;;;;5033972;28;20033;-60
2022/08/05 01:04:27;;;;;;;8.00;3.92;;;20.60;99.90;;;;;;5036891;28;20092;-58
2022/08/05 01:06:53;;;;;;;8.30;4.10;;;20.60;99.90;;;;;;5028984;28;20034;-59
2022/08/05 01:09:18;;;;;;;4.25;3.50;;;20.60;99.90;;;;;;5032841;28;20097;-60
2022/08/05 01:11:47;;;;;;;11.35;3.45;;;20.70;99.90;;;;;;5050718;28;20028;-60
2022/08/05 01:14:38;;;;;;;7.68;3.42;;;20.70;99.90;;;;;;5033162;28;20025;-60
2022/08/05 01:17:15;;;;;;;9.77;3.75;;;20.70;99.90;;;;;;5032440;28;20025;-60
2022/08/05 01:19:46;;;;;;;7.07;3.50;;;20.70;99.90;;;;;;5038759;28;21521;-60
2022/08/05 01:22:39;;;;;;;9.20;4.18;;;20.70;99.90;;;;;;5033095;28;20041;-60
2022/08/05 01:25:33;;;;;;;10.73;4.20;;;20.80;99.90;;;;;;5040151;28;20029;-59
2022/08/05 01:28:16;;;;;;;10.00;3.47;;;20.80;99.90;;;;;;5030335;28;20032;-60
2022/08/05 01:30:50;;;;;;;13.05;4.47;;;20.80;99.90;;;;;;5036417;28;20067;-58
2022/08/05 01:33:17;;;;;;;9.13;4.77;;;20.80;99.90;;;;;;5033701;28;20061;-55
2022/08/05 01:35:46;;;;;;;9.10;3.88;;;20.80;99.90;;;;;;5055268;22;20514;-61
2022/08/05 01:38:14;;;;;;;6.70;3.90;;;20.70;99.90;;;;;;5032425;28;20026;-60
2022/08/05 01:40:41;;;;;;;7.80;4.63;;;20.70;99.90;;;;;;5028501;28;20033;-60
2022/08/05 01:43:10;;;;;;;7.82;4.28;;;20.70;99.90;;;;;;5031312;28;20869;-60
2022/08/05 01:45:37;;;;;;;16.00;5.07;;;20.60;99.90;;;;;;5032538;28;20025;-63
2022/08/05 01:48:03;;;;;;;6.50;3.97;;;20.60;99.90;;;;;;5031644;28;20040;-61
2022/08/05 01:50:33;;;;;;;11.38;4.63;;;20.50;99.90;;;;;;5029134;28;20037;-62
2022/08/05 01:53:03;;;;;;;8.10;4.75;;;20.40;99.90;;;;;;5020074;28;20100;-62
2022/08/05 01:55:32;;;;;;;6.85;4.82;;;20.40;99.90;;;;;;5026413;28;20033;-62
2022/08/05 01:57:59;;;;;;;10.68;5.13;;;20.30;99.90;;;;;;5029661;28;20056;-62
2022/08/05 02:00:26;;;;;;;8.43;4.85;;;20.20;99.90;;;;;;5031901;28;20081;-60
2022/08/05 02:02:56;;;;;;;10.02;5.25;;;20.20;99.90;;;;;;5028405;28;20429;-61
2022/08/05 02:05:27;;;;;;;13.88;4.78;;;20.10;99.90;;;;;;5028808;28;20021;-63
2022/08/05 02:07:53;;;;;;;12.05;5.03;;;20.10;99.90;;;;;;5018502;28;20049;-62
2022/08/05 02:10:19;;;;;;;12.35;5.57;;;20.00;99.90;;;;;;5032033;28;20021;-62
2022/08/05 02:13:19;;;;;;;11.85;5.40;;;20.00;99.90;;;;;;5031978;28;20032;-62
2022/08/05 02:16:03;;;;;;;10.85;6.07;;;20.00;99.90;;;;;;4987881;28;20025;-63
2022/08/05 02:18:36;;;;;;;12.77;6.72;;;19.90;99.90;;;;;;5030135;28;20499;-60
2022/08/05 02:21:21;;;;;;;11.77;6.72;;;19.80;99.90;;;;;;5030371;28;20076;-60
2022/08/05 02:23:52;;;;;;;17.13;8.57;;;19.80;99.90;;;;;;5029601;28;20112;-60
2022/08/05 02:26:26;;;;;;;21.67;9.45;;;19.70;99.90;;;;;;5023366;28;20112;-58
2022/08/05 02:28:54;;;;;;;21.45;11.57;;;19.70;99.90;;;;;;5003810;28;20180;-59
2022/08/05 02:31:28;;;;;;;22.52;11.02;;;19.60;99.90;;;;;;5009085;28;20071;-59
2022/08/05 02:34:01;;;;;;;22.63;12.73;;;19.40;99.90;;;;;;5006419;28;20026;-59
2022/08/05 02:36:29;;;;;;;31.95;15.38;;;19.30;99.90;;;;;;5021599;28;20661;-61
2022/08/05 02:38:55;;;;;;;29.25;15.02;;;19.20;99.90;;;;;;4998785;28;20050;-60
2022/08/05 02:41:24;;;;;;;23.05;14.65;;;19.10;99.90;;;;;;5022928;28;20522;-62
2022/08/05 02:43:50;;;;;;;29.95;15.18;;;18.90;99.90;;;;;;4987182;28;20033;-61
2022/08/05 02:46:17;;;;;;;27.92;16.05;;;18.90;99.90;;;;;;5028809;28;20033;-59
2022/08/05 02:48:44;;;;;;;27.48;16.90;;;18.70;99.90;;;;;;5009996;28;20037;-62
2022/08/05 02:51:12;;;;;;;32.85;18.17;;;18.70;99.90;;;;;;5024826;28;20455;-60
2022/08/05 02:53:38;;;;;;;34.95;19.73;;;18.50;99.90;;;;;;5002556;28;20499;-61
2022/08/05 02:56:05;;;;;;;37.95;20.48;;;18.50;99.90;;;;;;5001546;28;20048;-60
2022/08/05 02:58:31;;;;;;;41.80;21.17;;;18.50;99.90;;;;;;5003475;28;20033;-59
2022/08/05 03:01:00;;;;;;;32.55;21.27;;;18.50;99.90;;;;;;4993168;28;20076;-61
2022/08/05 03:03:27;;;;;;;38.78;23.17;;;18.50;99.90;;;;;;4993991;28;20041;-62
2022/08/05 03:05:54;;;;;;;38.15;23.27;;;18.60;99.90;;;;;;5011092;28;20026;-60
2022/08/05 03:08:21;;;;;;;42.25;24.05;;;18.50;99.90;;;;;;5011197;28;21805;-62
2022/08/05 03:10:47;;;;;;;44.35;27.40;;;18.60;99.90;;;;;;5011915;28;20076;-60
2022/08/05 03:13:14;;;;;;;46.40;27.30;;;18.50;99.90;;;;;;5030746;28;20045;-61
2022/08/05 03:15:44;;;;;;;46.97;25.27;;;18.40;99.90;;;;;;5009823;28;20043;-62
2022/08/05 03:18:10;;;;;;;42.25;25.88;;;18.30;99.90;;;;;;4993561;28;20030;-62
2022/08/05 03:20:36;;;;;;;44.33;25.35;;;18.30;99.90;;;;;;5029075;28;20083;-61
2022/08/05 03:23:05;;;;;;;45.30;27.33;;;18.30;99.90;;;;;;5003845;28;20439;-62
2022/08/05 03:25:32;;;;;;;53.28;27.50;;;18.40;99.90;;;;;;5012355;28;20451;-60
2022/08/05 03:27:58;;;;;;;40.92;25.92;;;18.40;99.90;;;;;;5030929;28;20116;-60
2022/08/05 03:30:25;;;;;;;47.35;27.42;;;18.40;99.90;;;;;;5007635;28;20033;-59
2022/08/05 03:32:52;;;;;;;49.03;28.92;;;18.40;99.90;;;;;;5005430;28;20080;-61
2022/08/05 03:35:19;;;;;;;46.25;28.85;;;18.40;99.90;;;;;;5012734;28;20028;-61
2022/08/05 03:37:45;;;;;;;56.53;29.00;;;18.40;99.90;;;;;;5009742;28;20076;-61
2022/08/05 03:40:11;;;;;;;49.83;30.33;;;18.40;99.90;;;;;;4996753;28;20025;-61
2022/08/05 03:42:39;;;;;;;52.83;28.95;;;18.40;99.90;;;;;;4964085;28;20025;-60
2022/08/05 03:45:06;;;;;;;53.63;31.42;;;18.40;99.90;;;;;;5024997;28;20034;-59
2022/08/05 03:47:31;;;;;;;68.43;33.53;;;18.50;99.90;;;;;;4996549;28;20026;-60
2022/08/05 03:49:57;;;;;;;49.17;28.95;;;18.50;99.90;;;;;;5013319;28;20392;-58
2022/08/05 03:52:28;;;;;;;54.00;32.10;;;18.50;99.90;;;;;;5024666;28;20108;-61
2022/08/05 03:55:00;;;;;;;54.95;33.63;;;18.50;99.90;;;;;;5022446;28;20093;-61
2022/08/05 03:57:32;;;;;;;55.20;31.40;;;18.50;99.90;;;;;;5006123;28;20052;-59
2022/08/05 04:00:07;;;;;;;59.17;32.55;;;18.50;99.90;;;;;;5009065;28;20521;-61
2022/08/05 04:02:36;;;;;;;53.05;30.40;;;18.50;99.90;;;;;;5011518;28;20037;-61
2022/08/05 04:05:03;;;;;;;61.40;34.85;;;18.50;99.90;;;;;;5011815;28;20080;-60
2022/08/05 04:07:30;;;;;;;62.45;34.83;;;18.50;99.90;;;;;;5030843;28;20040;-60
2022/08/05 04:09:57;;;;;;;58.10;34.33;;;18.60;99.90;;;;;;5033223;28;20435;-57
2022/08/05 04:12:22;;;;;;;58.40;34.85;;;18.60;99.90;;;;;;5001777;28;20735;-57
2022/08/05 04:14:49;;;;;;;59.95;36.17;;;18.60;99.90;;;;;;4986261;28;20053;-57
2022/08/05 04:17:15;;;;;;;62.33;35.53;;;18.60;99.90;;;;;;5000849;28;20060;-58
2022/08/05 04:19:43;;;;;;;60.78;34.97;;;18.60;99.90;;;;;;5017504;28;20032;-58
2022/08/05 04:22:08;;;;;;;68.05;37.38;;;18.60;99.90;;;;;;5000638;28;20041;-59
2022/08/05 04:24:34;;;;;;;64.80;36.30;;;18.70;99.90;;;;;;5012908;28;20036;-60
2022/08/05 04:26:59;;;;;;;62.60;34.42;;;18.60;99.90;;;;;;5014171;28;20533;-60
2022/08/05 04:29:25;;;;;;;63.03;36.15;;;18.70;99.90;;;;;;5017796;28;20037;-58
2022/08/05 04:31:51;;;;;;;68.95;35.70;;;18.70;99.90;;;;;;5031131;28;20072;-62
2022/08/05 04:34:16;;;;;;;66.20;37.72;;;18.60;99.90;;;;;;5031247;28;20030;-58
2022/08/05 04:36:42;;;;;;;59.40;33.03;;;18.60;99.90;;;;;;5007076;28;20037;-62
2022/08/05 04:39:08;;;;;;;61.63;35.45;;;18.60;99.90;;;;;;5012774;28;20036;-61
2022/08/05 04:41:34;;;;;;;57.15;33.47;;;18.50;99.90;;;;;;5030770;28;20036;-62
2022/08/05 04:43:59;;;;;;;76.97;37.30;;;18.60;99.90;;;;;;5029236;28;20034;-62
2022/08/05 04:46:25;;;;;;;60.38;35.47;;;18.60;99.90;;;;;;5029602;28;20042;-62
2022/08/05 04:48:50;;;;;;;62.95;35.53;;;18.60;99.90;;;;;;5012727;28;20037;-60
2022/08/05 04:51:16;;;;;;;66.85;37.70;;;18.60;99.90;;;;;;5014191;28;20029;-60
2022/08/05 04:53:42;;;;;;;63.28;37.75;;;18.70;99.90;;;;;;5007507;28;20104;-59
2022/08/05 04:56:08;;;;;;;63.30;37.97;;;18.70;99.90;;;;;;5015164;28;20503;-60
2022/08/05 04:58:34;;;;;;;66.53;38.60;;;18.70;99.90;;;;;;5012904;28;20033;-61
2022/08/05 05:00:59;;;;;;;74.35;41.45;;;18.60;99.90;;;;;;5013481;28;20030;-61
2022/08/05 05:03:25;;;;;;;68.57;40.38;;;18.60;99.90;;;;;;5010850;28;20038;-62
2022/08/05 05:05:50;;;;;;;78.55;40.80;;;18.60;99.90;;;;;;5014940;28;20041;-62
2022/08/05 05:08:16;;;;;;;64.03;39.05;;;18.50;99.90;;;;;;5028708;28;20103;-61
2022/08/05 05:10:44;;;;;;;67.65;41.88;;;18.50;99.90;;;;;;4997703;28;20021;-62
2022/08/05 05:13:11;;;;;;;70.88;40.03;;;18.50;99.90;;;;;;5015487;28;20036;-61
2022/08/05 05:15:38;;;;;;;68.07;41.10;;;18.50;99.90;;;;;;5032665;28;20040;-62
2022/08/05 05:18:04;;;;;;;77.72;42.28;;;18.50;99.90;;;;;;5025079;28;20514;-62
2022/08/05 05:20:30;;;;;;;73.95;42.58;;;18.50;99.90;;;;;;5015269;28;20033;-62
2022/08/05 05:22:57;;;;;;;72.95;40.63;;;18.50;99.90;;;;;;5029435;28;20030;-62
2022/08/05 05:25:22;;;;;;;67.10;41.83;;;18.60;99.90;;;;;;5031701;28;20025;-61
2022/08/05 05:27:50;;;;;;;74.38;41.85;;;18.50;99.90;;;;;;5010671;28;20028;-61
2022/08/05 05:30:17;;;;;;;71.82;43.97;;;18.60;99.90;;;;;;5014240;28;20046;-61
2022/08/05 05:32:42;;;;;;;67.03;40.90;;;18.60;99.90;;;;;;5027161;28;20088;-61
2022/08/05 05:35:09;;;;;;;67.25;40.55;;;18.60;99.90;;;;;;5012773;28;20140;-61
2022/08/05 05:38:05;;;;;;;71.03;41.20;;;18.70;99.90;;;;;;5027733;28;20452;-60
2022/08/05 05:40:31;;;;;;;81.82;45.83;;;18.70;99.90;;;;;;5036347;28;20026;-60
2022/08/05 05:42:56;;;;;;;79.75;47.08;;;18.70;99.90;;;;;;5019197;28;20033;-61
2022/08/05 05:45:22;;;;;;;76.72;45.38;;;18.70;99.90;;;;;;5003321;28;20112;-59
2022/08/05 05:47:48;;;;;;;74.30;46.55;;;18.80;99.90;;;;;;5015168;28;20380;-61
2022/08/05 05:50:16;;;;;;;83.95;46.75;;;18.80;99.90;;;;;;5016922;28;20075;-60
2022/08/05 05:52:42;;;;;;;88.90;48.47;;;18.80;99.90;;;;;;5011495;28;20034;-60
2022/08/05 05:55:12;;;;;;;82.35;47.70;;;18.80;99.90;;;;;;5027263;28;20057;-60
2022/08/05 05:57:40;;;;;;;79.88;46.80;;;18.80;99.90;;;;;;5014007;28;20518;-60
2022/08/05 06:00:08;;;;;;;96.65;50.65;;;18.80;99.90;;;;;;5009955;28;20476;-61
2022/08/05 06:02:34;;;;;;;90.68;51.45;;;18.90;99.90;;;;;;4997953;28;20129;-59
2022/08/05 06:05:00;;;;;;;99.13;54.35;;;18.90;99.90;;;;;;5013847;28;20029;-61
2022/08/05 06:07:26;;;;;;;106.38;58.90;;;18.90;99.90;;;;;;5029211;28;20025;-61
2022/08/05 06:09:51;;;;;;;107.07;59.28;;;18.80;99.90;;;;;;5009934;28;20430;-59
2022/08/05 06:12:17;;;;;;;117.78;63.85;;;18.90;99.90;;;;;;5032324;28;20056;-60
2022/08/05 06:14:45;;;;;;;112.47;60.95;;;18.90;99.90;;;;;;5026723;28;20026;-60
2022/08/05 06:17:11;;;;;;;126.95;61.92;;;18.90;99.90;;;;;;5013107;28;20033;-59
2022/08/05 06:19:36;;;;;;;131.23;63.53;;;18.90;99.90;;;;;;4993158;28;20032;-60
2022/08/05 06:22:07;;;;;;;128.98;63.00;;;19.00;99.90;;;;;;5027313;28;20454;-59
2022/08/05 06:24:34;;;;;;;129.10;63.15;;;19.00;99.90;;;;;;5007226;28;20029;-60
2022/08/05 06:26:59;;;;;;;126.57;63.22;;;19.00;99.90;;;;;;5027247;28;20030;-59
2022/08/05 06:29:25;;;;;;;141.10;65.55;;;19.10;99.90;;;;;;5011184;28;20028;-58
2022/08/05 06:31:51;;;;;;;150.27;65.85;;;19.10;99.90;;;;;;5011656;28;20026;-61
2022/08/05 06:34:17;;;;;;;136.60;62.15;;;19.10;99.90;;;;;;5012120;28;20732;-60
2022/08/05 06:36:43;;;;;;;137.50;63.25;;;19.10;99.90;;;;;;4994241;28;20033;-58
2022/08/05 06:39:09;;;;;;;138.02;63.08;;;19.10;99.90;;;;;;5029603;28;20112;-61
2022/08/05 06:41:35;;;;;;;137.23;63.10;;;19.10;99.90;;;;;;5032747;28;20112;-60
2022/08/05 06:44:01;;;;;;;125.93;60.10;;;19.10;99.90;;;;;;5030021;28;20048;-60
2022/08/05 06:46:26;;;;;;;132.57;60.40;;;19.20;99.90;;;;;;5007505;28;20538;-60
2022/08/05 06:48:52;;;;;;;142.82;62.00;;;19.20;99.90;;;;;;4994972;28;20045;-61
2022/08/05 06:51:17;;;;;;;140.65;62.40;;;19.20;99.90;;;;;;5032282;28;20108;-60
2022/08/05 06:53:43;;;;;;;121.10;57.78;;;19.10;99.90;;;;;;4996536;28;20402;-59
2022/08/05 06:56:09;;;;;;;124.72;57.58;;;19.10;99.90;;;;;;5003291;28;20026;-60
2022/08/05 06:58:34;;;;;;;140.05;63.25;;;19.10;99.90;;;;;;4994402;28;20105;-60
2022/08/05 07:01:01;;;;;;;135.00;60.97;;;19.10;99.90;;;;;;5027117;28;20056;-60
2022/08/05 07:03:27;;;;;;;144.68;61.25;;;19.10;99.90;;;;;;5009491;28;20030;-59
2022/08/05 07:05:53;;;;;;;139.27;60.38;;;19.10;99.90;;;;;;5031643;28;20071;-60
2022/08/05 07:08:21;;;;;;;133.80;61.85;;;19.00;99.90;;;;;;5009938;28;20479;-61
2022/08/05 07:10:47;;;;;;;145.35;61.75;;;19.10;99.90;;;;;;5026338;28;20037;-60
2022/08/05 07:18:41;;;;;;;161.20;65.88;;;19.10;99.90;;;;;;5023271;28;20877;-60
2022/08/05 07:21:07;;;;;;;150.77;64.72;;;19.10;99.90;;;;;;5003210;28;20110;-58
2022/08/05 07:23:33;;;;;;;151.45;65.45;;;19.10;99.90;;;;;;5026986;28;20121;-60
2022/08/05 07:25:59;;;;;;;153.75;67.72;;;19.20;99.90;;;;;;5010024;28;20035;-60
2022/08/05 07:28:26;;;;;;;159.15;65.80;;;19.20;99.90;;;;;;5012956;28;20483;-61
2022/08/05 07:30:51;;;;;;;161.90;66.38;;;19.10;99.90;;;;;;4995045;28;20108;-61
2022/08/05 07:33:20;;;;;;;165.05;69.10;;;19.10;99.90;;;;;;5027877;28;20067;-60
2022/08/05 07:35:46;;;;;;;158.68;67.35;;;19.10;99.90;;;;;;5013970;28;20668;-60
2022/08/05 07:38:11;;;;;;;155.70;68.75;;;19.10;99.90;;;;;;5006117;23;20054;-61
2022/08/05 07:40:37;;;;;;;156.80;67.40;;;19.10;99.90;;;;;;4991725;28;20507;-60
2022/08/05 07:43:03;;;;;;;170.27;70.57;;;19.00;99.90;;;;;;4992283;28;20054;-63
2022/08/05 07:45:28;;;;;;;152.32;69.85;;;19.00;99.90;;;;;;4994911;28;20176;-61
2022/08/05 07:47:54;;;;;;;156.75;70.63;;;19.00;99.90;;;;;;5010866;28;20030;-59
2022/08/05 07:50:19;;;;;;;153.95;66.95;;;18.90;99.90;;;;;;5001654;28;20030;-60
2022/08/05 07:52:45;;;;;;;156.13;70.38;;;18.90;99.90;;;;;;5003741;28;20038;-62
2022/08/05 07:55:11;;;;;;;154.65;67.43;;;18.90;99.90;;;;;;5007183;28;20080;-61
2022/08/05 07:57:36;;;;;;;147.68;67.53;;;18.90;99.90;;;;;;4994770;28;20069;-56
2022/08/05 08:00:07;;;;;;;147.57;66.00;;;18.90;99.90;;;;;;5012448;28;20033;-60
2022/08/05 08:02:33;;;;;;;152.27;65.53;;;18.90;99.90;;;;;;4996519;28;20048;-62
2022/08/05 08:04:59;;;;;;;146.77;67.70;;;18.90;99.90;;;;;;5001437;28;20776;-59
2022/08/05 08:07:25;;;;;;;148.07;66.82;;;18.80;99.90;;;;;;4991194;28;20018;-63
2022/08/05 08:09:51;;;;;;;132.15;60.03;;;18.80;99.90;;;;;;5001143;28;20037;-63
2022/08/05 08:12:17;;;;;;;102.53;50.72;;;18.80;99.90;;;;;;4993398;28;20030;-61
2022/08/05 08:14:43;;;;;;;87.88;45.90;;;18.70;99.90;;;;;;5009087;28;20107;-62
2022/08/05 08:17:12;;;;;;;87.82;45.22;;;18.70;99.90;;;;;;5003496;28;20470;-63
2022/08/05 08:19:39;;;;;;;88.30;45.78;;;18.60;99.90;;;;;;4988350;28;20030;-62
2022/08/05 08:22:05;;;;;;;89.72;46.17;;;18.60;99.90;;;;;;4988355;28;20049;-62
2022/08/05 08:24:31;;;;;;;79.68;44.78;;;18.50;99.90;;;;;;4984233;28;20192;-59
2022/08/05 08:26:57;;;;;;;88.13;47.28;;;18.40;99.90;;;;;;4995506;28;20061;-61
2022/08/05 08:29:23;;;;;;;82.82;45.53;;;18.40;99.90;;;;;;4997396;28;21261;-62
2022/08/05 08:31:49;;;;;;;88.07;48.17;;;18.30;99.90;;;;;;4990481;28;20085;-60
2022/08/05 08:34:16;;;;;;;97.00;51.65;;;18.30;99.90;;;;;;4995711;28;20030;-62
2022/08/05 08:36:42;;;;;;;103.18;53.42;;;18.30;99.90;;;;;;4997031;28;20424;-61
2022/08/05 08:39:08;;;;;;;104.28;56.08;;;18.40;99.90;;;;;;4989759;28;20076;-61
2022/08/05 08:41:35;;;;;;;112.03;59.22;;;18.40;99.90;;;;;;4983274;28;20046;-59
2022/08/05 08:44:01;;;;;;;121.55;61.92;;;18.30;99.90;;;;;;4993474;28;20037;-61
2022/08/05 08:46:30;;;;;;;114.90;58.53;;;18.40;99.90;;;;;;4998599;28;20025;-59
2022/08/05 08:48:56;;;;;;;115.20;59.70;;;18.40;99.90;;;;;;4994636;28;20514;-60
2022/08/05 08:51:23;;;;;;;122.43;59.55;;;18.30;99.90;;;;;;4987489;28;20023;-59
2022/08/05 08:53:49;;;;;;;116.53;59.75;;;18.20;99.90;;;;;;4988667;28;20121;-61
2022/08/05 08:56:16;;;;;;;124.60;61.05;;;18.20;99.90;;;;;;4988795;28;20125;-61
2022/08/05 08:58:42;;;;;;;121.90;61.67;;;18.20;99.90;;;;;;4993518;28;20065;-62
2022/08/05 09:01:07;;;;;;;126.60;62.95;;;18.20;99.90;;;;;;4994330;28;20019;-60
2022/08/05 09:03:34;;;;;;;113.50;61.80;;;18.20;99.90;;;;;;5002101;28;20121;-61
2022/08/05 09:06:00;;;;;;;111.68;58.38;;;18.20;99.90;;;;;;5004616;28;20084;-62
2022/08/05 09:08:26;;;;;;;109.05;56.30;;;18.00;99.90;;;;;;5004059;28;20048;-60
2022/08/05 09:10:51;;;;;;;98.00;55.30;;;18.00;99.90;;;;;;5009540;28;20033;-61
2022/08/05 09:13:18;;;;;;;95.90;54.88;;;17.90;99.90;;;;;;5008864;28;20113;-61
2022/08/05 09:15:45;;;;;;;94.40;52.95;;;18.00;99.90;;;;;;5009163;28;20377;-61
2022/08/05 09:18:11;;;;;;;86.20;51.55;;;18.00;99.90;;;;;;5011815;28;20022;-61
2022/08/05 09:20:37;;;;;;;82.13;50.83;;;17.90;99.90;;;;;;5003972;28;20022;-60
2022/08/05 09:23:16;;;;;;;91.88;50.85;;;18.00;99.90;;;;;;5011723;28;20030;-59
2022/08/05 09:25:46;;;;;;;79.40;48.08;;;18.00;99.90;;;;;;4999165;28;20041;-61
2022/08/05 09:28:17;;;;;;;80.10;47.22;;;18.10;99.90;;;;;;5004886;28;20030;-60
2022/08/05 09:30:50;;;;;;;81.20;45.60;;;18.00;99.90;;;;;;5010669;28;20014;-60
2022/08/05 09:33:16;;;;;;;69.20;44.58;;;18.00;99.90;;;;;;5011482;28;20038;-57
2022/08/05 09:35:55;;;;;;;73.97;39.33;;;18.00;99.90;;;;;;5006599;28;20092;-61
2022/08/05 09:38:21;;;;;;;57.97;36.60;;;18.10;99.90;;;;;;5001346;28;20048;-64
2022/08/05 09:40:47;;;;;;;57.42;35.88;;;18.00;99.90;;;;;;4993934;28;20101;-63
2022/08/05 09:43:33;;;;;;;59.40;37.33;;;17.90;99.90;;;;;;4997203;28;20026;-57
2022/08/05 09:45:58;;;;;;;55.53;36.42;;;17.90;99.90;;;;;;5008589;28;20035;-62
2022/08/05 09:48:27;;;;;;;64.85;39.58;;;17.90;99.90;;;;;;5011316;28;20169;-62
2022/08/05 09:50:55;;;;;;;52.90;35.42;;;17.90;99.90;;;;;;5011454;28;20021;-60
2022/08/05 09:53:21;;;;;;;45.95;33.03;;;17.80;99.90;;;;;;5011384;28;20643;-62
2022/08/05 09:55:51;;;;;;;43.55;29.05;;;17.80;99.90;;;;;;5000596;28;20022;-62
2022/08/05 09:58:17;;;;;;;43.33;30.50;;;17.80;99.90;;;;;;5008248;28;20022;-61
2022/08/05 10:01:04;;;;;;;41.30;29.55;;;17.80;99.90;;;;;;5010633;28;20029;-62
2022/08/05 10:03:30;;;;;;;41.58;29.27;;;17.70;99.90;;;;;;5010806;28;20092;-62
2022/08/05 10:06:09;;;;;;;44.58;28.70;;;17.60;99.90;;;;;;5008670;28;20431;-61
2022/08/05 10:08:38;;;;;;;41.10;28.90;;;17.60;99.90;;;;;;5006294;28;20022;-61
2022/08/05 10:11:12;;;;;;;40.90;28.67;;;17.60;99.90;;;;;;5007571;28;20030;-61
2022/08/05 10:13:38;;;;;;;45.03;31.27;;;17.70;99.90;;;;;;5010903;28;20404;-62
2022/08/05 10:16:05;;;;;;;37.42;28.25;;;17.80;99.90;;;;;;5010613;28;20488;-63
2022/08/05 10:18:32;;;;;;;41.67;28.25;;;17.80;99.90;;;;;;5003260;28;20029;-62
2022/08/05 10:21:03;;;;;;;37.05;28.70;;;17.90;99.90;;;;;;5010976;28;20399;-62
2022/08/05 10:23:35;;;;;;;39.10;27.73;;;17.90;99.90;;;;;;5005282;28;20439;-61
2022/08/05 10:26:06;;;;;;;41.72;27.50;;;18.00;99.90;;;;;;5003160;28;20062;-61
2022/08/05 10:28:33;;;;;;;40.35;28.00;;;18.00;99.90;;;;;;4996181;28;20061;-61
2022/08/05 10:30:59;;;;;;;36.47;24.88;;;18.00;99.90;;;;;;4965391;28;20022;-60
2022/08/05 10:33:28;;;;;;;36.88;22.67;;;17.90;99.90;;;;;;4992071;28;20026;-61
2022/08/05 10:35:54;;;;;;;27.48;20.92;;;18.00;99.90;;;;;;4984304;28;20126;-61
2022/08/05 10:38:22;;;;;;;35.88;21.15;;;18.10;99.90;;;;;;4986004;28;20038;-60
2022/08/05 10:40:55;;;;;;;28.85;19.15;;;18.10;99.90;;;;;;4984354;28;20874;-61
2022/08/05 10:43:58;;;;;;;27.90;18.92;;;18.20;99.90;;;;;;4981556;28;20065;-58
2022/08/05 10:46:41;;;;;;;29.38;17.35;;;18.30;99.90;;;;;;4984664;28;20018;-61
2022/08/05 10:49:07;;;;;;;23.83;15.90;;;18.30;99.90;;;;;;4998900;28;20033;-61
2022/08/05 10:51:45;;;;;;;23.13;15.13;;;18.30;99.90;;;;;;4986699;28;20046;-62
2022/08/05 10:54:11;;;;;;;25.67;15.73;;;18.40;99.90;;;;;;4994162;28;20072;-61
2022/08/05 10:56:49;;;;;;;23.27;13.18;;;18.40;99.90;;;;;;4999665;28;20041;-61
2022/08/05 10:59:34;;;;;;;17.08;9.48;;;18.40;99.90;;;;;;4996180;28;20450;-62
2022/08/05 11:02:12;;;;;;;14.20;8.15;;;18.40;99.90;;;;;;4991694;28;20038;-60
2022/08/05 11:04:45;;;;;;;16.15;7.30;;;18.40;99.90;;;;;;5000874;28;20025;-63
2022/08/05 11:07:14;;;;;;;16.93;7.90;;;18.50;99.90;;;;;;4997027;28;20034;-59
2022/08/05 11:09:48;;;;;;;15.27;7.38;;;18.60;99.90;;;;;;4997907;28;20101;-59
2022/08/05 11:12:37;;;;;;;14.43;7.93;;;18.70;99.90;;;;;;4997101;28;20034;-61
2022/08/05 11:15:14;;;;;;;15.10;7.53;;;18.70;99.90;;;;;;4972018;28;20070;-60
2022/08/05 11:17:40;;;;;;;10.88;8.07;;;18.80;99.90;;;;;;5000150;28;20058;-61
2022/08/05 11:20:07;;;;;;;12.32;6.30;;;19.00;99.90;;;;;;4996136;28;20065;-62
2022/08/05 11:22:47;;;;;;;15.27;6.20;;;19.20;99.90;;;;;;5002390;28;20029;-61
2022/08/05 11:25:42;;;;;;;9.95;5.20;;;19.70;99.90;;;;;;4989326;28;20034;-60
2022/08/05 11:28:08;;;;;;;15.95;7.07;;;20.20;99.90;;;;;;4998487;28;20034;-57
2022/08/05 11:30:56;;;;;;;13.18;7.22;;;20.00;99.90;;;;;;4989382;28;20046;-60
2022/08/05 11:33:33;;;;;;;10.60;6.47;;;19.80;99.90;;;;;;4988437;28;20030;-61
2022/08/05 11:36:07;;;;;;;14.15;7.32;;;19.70;99.90;;;;;;4999461;28;20038;-58
2022/08/05 11:38:53;;;;;;;10.27;7.88;;;19.70;99.90;;;;;;4998240;28;20034;-61
2022/08/05 11:41:26;;;;;;;21.63;8.30;;;19.70;99.90;;;;;;4996070;28;20077;-61
2022/08/05 11:43:54;;;;;;;16.03;8.70;;;19.80;99.90;;;;;;4994499;28;20412;-59
2022/08/05 11:46:36;;;;;;;18.10;7.75;;;20.10;99.90;;;;;;4999907;28;20549;-56
2022/08/05 11:49:04;;;;;;;13.05;6.68;;;20.40;99.90;;;;;;5005015;28;20466;-58
2022/08/05 11:51:30;;;;;;;14.27;5.60;;;20.70;99.90;;;;;;5001460;28;20057;-59
2022/08/05 11:53:57;;;;;;;10.80;5.20;;;21.10;99.90;;;;;;4991317;28;20038;-60
2022/08/05 11:56:23;;;;;;;8.70;5.10;;;21.20;99.90;;;;;;5001992;28;20033;-62
2022/08/05 11:58:49;;;;;;;8.05;3.90;;;21.10;99.90;;;;;;4998985;28;20023;-61
2022/08/05 12:01:17;;;;;;;7.97;3.53;;;20.90;99.90;;;;;;5012021;28;20029;-60
2022/08/05 12:03:51;;;;;;;6.68;3.30;;;21.10;99.90;;;;;;5003926;28;20125;-57
2022/08/05 12:06:24;;;;;;;5.60;3.00;;;21.20;99.90;;;;;;4993725;28;20035;-59
2022/08/05 12:08:52;;;;;;;10.20;3.00;;;21.40;99.90;;;;;;5008992;28;20037;-59
2022/08/05 12:11:29;;;;;;;6.05;2.40;;;21.70;99.90;;;;;;4993917;28;20034;-59
2022/08/05 12:13:58;;;;;;;3.83;2.35;;;21.90;99.90;;;;;;5004087;28;20565;-61
2022/08/05 12:16:27;;;;;;;10.88;2.72;;;21.90;99.90;;;;;;5014034;28;20330;-59
2022/08/05 12:18:54;;;;;;;7.10;2.95;;;22.20;99.90;;;;;;5000828;28;20033;-62
2022/08/05 12:21:27;;;;;;;4.13;2.47;;;22.30;99.90;;;;;;4999228;28;20022;-59
2022/08/05 12:24:07;;;;;;;5.45;2.17;;;22.30;99.90;;;;;;5009850;28;20037;-60
2022/08/05 12:26:38;;;;;;;5.28;2.40;;;22.20;99.90;;;;;;4993158;28;20030;-61
2022/08/05 12:29:06;;;;;;;8.27;2.67;;;22.10;99.90;;;;;;4997906;28;20022;-60
2022/08/05 12:31:33;;;;;;;5.78;2.28;;;22.60;99.90;;;;;;4990791;28;20030;-61
2022/08/05 12:34:00;;;;;;;3.75;2.42;;;22.90;99.90;;;;;;5002603;28;20540;-59
2022/08/05 12:36:26;;;;;;;4.65;2.60;;;23.20;99.90;;;;;;4992664;28;20077;-62
2022/08/05 12:38:51;;;;;;;9.60;2.60;;;23.20;99.90;;;;;;4999327;28;20073;-61
2022/08/05 12:41:17;;;;;;;7.63;2.97;;;23.40;99.90;;;;;;4996568;28;20035;-56
2022/08/05 12:44:01;;;;;;;7.72;2.45;;;23.30;99.90;;;;;;4991201;28;20544;-58